sensor_id;sensor_type;location;lat;lon;timestamp;temperature;humidity
21085;DHT22;34247;50.064;19.970;2022-10-16T00:00:01;30.60;27.50
21085;DHT22;34247;50.064;19.970;2022-10-16T00:01:09;30.60;27.30
21085;DHT22;34247;50.064;19.970;2022-10-16T00:02:25;30.60;27.20
21085;DHT22;34247;50.064;19.970;2022-10-16T00:03:39;30.60;27.20
21085;DHT22;34247;50.064;19.970;2022-10-16T00:04:48;30.60;27.30
21085;DHT22;34247;50.064;19.970;2022-10-16T00:06:00;30.60;27.30
21085;DHT22;34247;50.064;19.970;2022-10-16T00:07:05;30.60;27.40
21085;DHT22;34247;50.064;19.970;2022-10-16T00:08:12;30.60;27.20
21085;DHT22;34247;50.064;19.970;2022-10-16T00:09:18;30.60;27.20
21085;DHT22;34247;50.064;19.970;2022-10-16T00:10:22;30.60;27.20
21085;DHT22;34247;50.064;19.970;2022-10-16T00:11:34;30.50;27.20
21085;DHT22;34247;50.064;19.970;2022-10-16T00:12:42;30.50;27.20
21085;DHT22;34247;50.064;19.970;2022-10-16T00:14:08;30.50;27.30
21085;DHT22;34247;50.064;19.970;2022-10-16T00:15:16;30.50;27.30
21085;DHT22;34247;50.064;19.970;2022-10-16T00:16:21;30.50;27.30
21085;DHT22;34247;50.064;19.970;2022-10-16T00:17:26;30.50;27.30
21085;DHT22;34247;50.064;19.970;2022-10-16T00:18:32;30.50;27.40
21085;DHT22;34247;50.064;19.970;2022-10-16T00:19:40;30.50;27.30
21085;DHT22;34247;50.064;19.970;2022-10-16T00:20:49;30.50;27.30
21085;DHT22;34247;50.064;19.970;2022-10-16T00:21:55;30.50;27.20
21085;DHT22;34247;50.064;19.970;2022-10-16T00:23:07;30.50;27.20
21085;DHT22;34247;50.064;19.970;2022-10-16T00:24:11;30.50;27.20
21085;DHT22;34247;50.064;19.970;2022-10-16T00:25:15;30.50;27.10
21085;DHT22;34247;50.064;19.970;2022-10-16T00:26:21;30.50;27.10
21085;DHT22;34247;50.064;19.970;2022-10-16T00:27:24;30.50;27.10
21085;DHT22;34247;50.064;19.970;2022-10-16T00:28:28;30.50;27.10
21085;DHT22;34247;50.064;19.970;2022-10-16T00:29:33;30.50;27.10
21085;DHT22;34247;50.064;19.970;2022-10-16T00:30:41;30.50;27.20
21085;DHT22;34247;50.064;19.970;2022-10-16T00:31:45;30.50;27.20
21085;DHT22;34247;50.064;19.970;2022-10-16T00:32:48;30.40;27.30
21085;DHT22;34247;50.064;19.970;2022-10-16T00:33:52;30.40;27.30
21085;DHT22;34247;50.064;19.970;2022-10-16T00:34:56;30.40;27.30
21085;DHT22;34247;50.064;19.970;2022-10-16T00:36:01;30.40;27.30
21085;DHT22;34247;50.064;19.970;2022-10-16T00:37:06;30.40;27.40
21085;DHT22;34247;50.064;19.970;2022-10-16T00:38:10;30.40;27.30
21085;DHT22;34247;50.064;19.970;2022-10-16T00:39:16;30.40;27.30
21085;DHT22;34247;50.064;19.970;2022-10-16T00:40:23;30.40;27.30
21085;DHT22;34247;50.064;19.970;2022-10-16T00:41:28;30.40;27.30
21085;DHT22;34247;50.064;19.970;2022-10-16T00:42:37;30.40;27.30
21085;DHT22;34247;50.064;19.970;2022-10-16T00:43:56;30.40;27.30
21085;DHT22;34247;50.064;19.970;2022-10-16T00:45:05;30.40;27.30
21085;DHT22;34247;50.064;19.970;2022-10-16T00:46:38;30.40;27.40
21085;DHT22;34247;50.064;19.970;2022-10-16T00:47:46;30.40;28.00
21085;DHT22;34247;50.064;19.970;2022-10-16T00:49:15;30.40;27.50
21085;DHT22;34247;50.064;19.970;2022-10-16T00:50:28;30.40;27.40
21085;DHT22;34247;50.064;19.970;2022-10-16T00:51:40;30.40;27.40
21085;DHT22;34247;50.064;19.970;2022-10-16T00:52:49;30.40;27.40
21085;DHT22;34247;50.064;19.970;2022-10-16T00:53:57;30.40;27.50
21085;DHT22;34247;50.064;19.970;2022-10-16T00:55:04;30.40;27.40
21085;DHT22;34247;50.064;19.970;2022-10-16T00:56:12;30.40;27.50
21085;DHT22;34247;50.064;19.970;2022-10-16T00:57:17;30.40;27.50
21085;DHT22;34247;50.064;19.970;2022-10-16T00:58:21;30.40;27.40
21085;DHT22;34247;50.064;19.970;2022-10-16T00:59:40;30.40;27.40
21085;DHT22;34247;50.064;19.970;2022-10-16T01:00:49;30.40;27.40
21085;DHT22;34247;50.064;19.970;2022-10-16T01:01:54;30.40;27.40
21085;DHT22;34247;50.064;19.970;2022-10-16T01:03:03;30.40;27.50
21085;DHT22;34247;50.064;19.970;2022-10-16T01:04:34;30.40;27.30
21085;DHT22;34247;50.064;19.970;2022-10-16T01:05:58;30.40;27.50
21085;DHT22;34247;50.064;19.970;2022-10-16T01:07:14;30.40;27.70
21085;DHT22;34247;50.064;19.970;2022-10-16T01:10:34;30.40;27.70
21085;DHT22;34247;50.064;19.970;2022-10-16T01:13:15;30.40;27.80
21085;DHT22;34247;50.064;19.970;2022-10-16T01:14:44;30.40;27.80
21085;DHT22;34247;50.064;19.970;2022-10-16T01:16:13;30.40;27.80
21085;DHT22;34247;50.064;19.970;2022-10-16T01:17:37;30.40;27.70
21085;DHT22;34247;50.064;19.970;2022-10-16T01:19:05;30.40;27.80
21085;DHT22;34247;50.064;19.970;2022-10-16T01:21:35;30.40;28.20
21085;DHT22;34247;50.064;19.970;2022-10-16T01:24:43;30.40;27.50
21085;DHT22;34247;50.064;19.970;2022-10-16T01:27:26;30.40;27.50
21085;DHT22;34247;50.064;19.970;2022-10-16T01:29:02;30.40;27.70
21085;DHT22;34247;50.064;19.970;2022-10-16T01:30:20;30.40;27.80
21085;DHT22;34247;50.064;19.970;2022-10-16T01:31:37;30.40;27.80
21085;DHT22;34247;50.064;19.970;2022-10-16T01:33:15;30.40;27.60
21085;DHT22;34247;50.064;19.970;2022-10-16T01:34:31;30.40;27.40
21085;DHT22;34247;50.064;19.970;2022-10-16T01:35:46;30.40;27.40
21085;DHT22;34247;50.064;19.970;2022-10-16T01:37:02;30.40;27.30
21085;DHT22;34247;50.064;19.970;2022-10-16T01:38:31;30.40;27.40
21085;DHT22;34247;50.064;19.970;2022-10-16T01:39:43;30.40;27.50
21085;DHT22;34247;50.064;19.970;2022-10-16T01:40:54;30.40;27.70
21085;DHT22;34247;50.064;19.970;2022-10-16T01:42:09;30.40;27.80
21085;DHT22;34247;50.064;19.970;2022-10-16T01:43:22;30.40;27.70
21085;DHT22;34247;50.064;19.970;2022-10-16T01:44:32;30.40;27.60
21085;DHT22;34247;50.064;19.970;2022-10-16T01:45:44;30.40;27.60
21085;DHT22;34247;50.064;19.970;2022-10-16T01:46:51;30.40;27.60
21085;DHT22;34247;50.064;19.970;2022-10-16T01:47:57;30.40;27.70
21085;DHT22;34247;50.064;19.970;2022-10-16T01:49:08;30.40;27.60
21085;DHT22;34247;50.064;19.970;2022-10-16T01:50:19;30.40;27.60
21085;DHT22;34247;50.064;19.970;2022-10-16T01:51:26;30.40;27.70
21085;DHT22;34247;50.064;19.970;2022-10-16T01:52:39;30.40;27.70
21085;DHT22;34247;50.064;19.970;2022-10-16T01:53:53;30.40;27.70
21085;DHT22;34247;50.064;19.970;2022-10-16T01:55:03;30.40;27.80
21085;DHT22;34247;50.064;19.970;2022-10-16T01:56:12;30.40;27.80
21085;DHT22;34247;50.064;19.970;2022-10-16T01:57:21;30.40;27.80
21085;DHT22;34247;50.064;19.970;2022-10-16T01:58:29;30.40;27.80
21085;DHT22;34247;50.064;19.970;2022-10-16T01:59:44;30.40;27.80
21085;DHT22;34247;50.064;19.970;2022-10-16T02:02:29;30.40;27.80
21085;DHT22;34247;50.064;19.970;2022-10-16T02:04:39;30.40;27.90
21085;DHT22;34247;50.064;19.970;2022-10-16T02:06:24;30.40;27.80
21085;DHT22;34247;50.064;19.970;2022-10-16T02:07:35;30.40;27.90
21085;DHT22;34247;50.064;19.970;2022-10-16T02:09:29;30.40;28.00
21085;DHT22;34247;50.064;19.970;2022-10-16T02:10:49;30.40;27.90
21085;DHT22;34247;50.064;19.970;2022-10-16T02:12:20;30.40;27.70
21085;DHT22;34247;50.064;19.970;2022-10-16T02:13:45;30.40;27.80
21085;DHT22;34247;50.064;19.970;2022-10-16T02:14:53;30.40;27.80
21085;DHT22;34247;50.064;19.970;2022-10-16T02:15:57;30.40;27.70
21085;DHT22;34247;50.064;19.970;2022-10-16T02:17:11;30.40;27.70
21085;DHT22;34247;50.064;19.970;2022-10-16T02:18:19;30.40;27.80
21085;DHT22;34247;50.064;19.970;2022-10-16T02:19:23;30.40;27.80
21085;DHT22;34247;50.064;19.970;2022-10-16T02:20:37;30.40;27.80
21085;DHT22;34247;50.064;19.970;2022-10-16T02:21:59;30.40;27.70
21085;DHT22;34247;50.064;19.970;2022-10-16T02:23:08;30.40;27.70
21085;DHT22;34247;50.064;19.970;2022-10-16T02:26:27;30.40;27.70
21085;DHT22;34247;50.064;19.970;2022-10-16T02:28:10;30.30;27.70
21085;DHT22;34247;50.064;19.970;2022-10-16T02:29:19;30.30;27.70
21085;DHT22;34247;50.064;19.970;2022-10-16T02:30:36;30.30;27.70
21085;DHT22;34247;50.064;19.970;2022-10-16T02:31:43;30.30;27.70
21085;DHT22;34247;50.064;19.970;2022-10-16T02:32:51;30.30;27.70
21085;DHT22;34247;50.064;19.970;2022-10-16T02:34:08;30.30;27.80
21085;DHT22;34247;50.064;19.970;2022-10-16T02:35:18;30.30;27.70
21085;DHT22;34247;50.064;19.970;2022-10-16T02:36:29;30.30;27.80
21085;DHT22;34247;50.064;19.970;2022-10-16T02:37:41;30.30;27.80
21085;DHT22;34247;50.064;19.970;2022-10-16T02:38:52;30.30;27.70
21085;DHT22;34247;50.064;19.970;2022-10-16T02:40:04;30.30;27.80
21085;DHT22;34247;50.064;19.970;2022-10-16T02:41:20;30.30;27.70
21085;DHT22;34247;50.064;19.970;2022-10-16T02:42:35;30.30;27.80
21085;DHT22;34247;50.064;19.970;2022-10-16T02:43:41;30.30;28.30
21085;DHT22;34247;50.064;19.970;2022-10-16T02:44:47;30.30;27.80
21085;DHT22;34247;50.064;19.970;2022-10-16T02:45:58;30.30;27.90
21085;DHT22;34247;50.064;19.970;2022-10-16T02:47:06;30.20;27.80
21085;DHT22;34247;50.064;19.970;2022-10-16T02:48:16;30.30;27.90
21085;DHT22;34247;50.064;19.970;2022-10-16T02:49:33;30.20;27.90
21085;DHT22;34247;50.064;19.970;2022-10-16T02:50:42;30.20;27.90
21085;DHT22;34247;50.064;19.970;2022-10-16T02:51:55;30.20;27.90
21085;DHT22;34247;50.064;19.970;2022-10-16T02:52:59;30.20;27.90
21085;DHT22;34247;50.064;19.970;2022-10-16T02:54:08;30.20;27.90
21085;DHT22;34247;50.064;19.970;2022-10-16T02:55:16;30.20;27.90
21085;DHT22;34247;50.064;19.970;2022-10-16T02:56:26;30.20;28.00
21085;DHT22;34247;50.064;19.970;2022-10-16T02:57:34;30.20;27.90
21085;DHT22;34247;50.064;19.970;2022-10-16T02:58:58;30.20;28.00
21085;DHT22;34247;50.064;19.970;2022-10-16T03:00:02;30.20;28.00
21085;DHT22;34247;50.064;19.970;2022-10-16T03:01:10;30.20;28.00
21085;DHT22;34247;50.064;19.970;2022-10-16T03:02:26;30.20;28.10
21085;DHT22;34247;50.064;19.970;2022-10-16T03:03:36;30.20;28.10
21085;DHT22;34247;50.064;19.970;2022-10-16T03:05:01;30.20;28.10
21085;DHT22;34247;50.064;19.970;2022-10-16T03:06:05;30.10;28.00
21085;DHT22;34247;50.064;19.970;2022-10-16T03:07:12;30.10;28.00
21085;DHT22;34247;50.064;19.970;2022-10-16T03:08:16;30.10;28.60
21085;DHT22;34247;50.064;19.970;2022-10-16T03:09:20;30.10;28.10
21085;DHT22;34247;50.064;19.970;2022-10-16T03:10:24;30.10;28.10
21085;DHT22;34247;50.064;19.970;2022-10-16T03:11:28;30.10;28.20
21085;DHT22;34247;50.064;19.970;2022-10-16T03:12:32;30.10;28.20
21085;DHT22;34247;50.064;19.970;2022-10-16T03:13:36;30.10;28.20
21085;DHT22;34247;50.064;19.970;2022-10-16T03:14:40;30.10;28.20
21085;DHT22;34247;50.064;19.970;2022-10-16T03:15:44;30.10;28.20
21085;DHT22;34247;50.064;19.970;2022-10-16T03:16:48;30.10;28.10
21085;DHT22;34247;50.064;19.970;2022-10-16T03:17:51;30.10;28.20
21085;DHT22;34247;50.064;19.970;2022-10-16T03:18:55;30.10;28.20
21085;DHT22;34247;50.064;19.970;2022-10-16T03:19:59;30.10;28.20
21085;DHT22;34247;50.064;19.970;2022-10-16T03:21:03;30.10;28.30
21085;DHT22;34247;50.064;19.970;2022-10-16T03:22:07;30.10;28.30
21085;DHT22;34247;50.064;19.970;2022-10-16T03:23:10;30.10;28.30
21085;DHT22;34247;50.064;19.970;2022-10-16T03:24:14;30.10;28.40
21085;DHT22;34247;50.064;19.970;2022-10-16T03:25:18;30.10;28.30
21085;DHT22;34247;50.064;19.970;2022-10-16T03:26:22;30.10;28.30
21085;DHT22;34247;50.064;19.970;2022-10-16T03:27:26;30.10;28.30
21085;DHT22;34247;50.064;19.970;2022-10-16T03:28:30;30.10;28.30
21085;DHT22;34247;50.064;19.970;2022-10-16T03:29:34;30.10;28.30
21085;DHT22;34247;50.064;19.970;2022-10-16T03:30:38;30.10;28.30
21085;DHT22;34247;50.064;19.970;2022-10-16T03:31:42;30.10;28.30
21085;DHT22;34247;50.064;19.970;2022-10-16T03:32:46;30.10;28.30
21085;DHT22;34247;50.064;19.970;2022-10-16T03:33:50;30.10;27.90
21085;DHT22;34247;50.064;19.970;2022-10-16T03:34:54;30.10;28.30
21085;DHT22;34247;50.064;19.970;2022-10-16T03:35:59;30.10;28.40
21085;DHT22;34247;50.064;19.970;2022-10-16T03:37:03;30.10;28.30
21085;DHT22;34247;50.064;19.970;2022-10-16T03:38:07;30.00;28.30
21085;DHT22;34247;50.064;19.970;2022-10-16T03:39:10;30.10;28.40
21085;DHT22;34247;50.064;19.970;2022-10-16T03:40:14;30.00;28.30
21085;DHT22;34247;50.064;19.970;2022-10-16T03:41:19;30.00;28.30
21085;DHT22;34247;50.064;19.970;2022-10-16T03:42:23;30.00;28.40
21085;DHT22;34247;50.064;19.970;2022-10-16T03:43:27;30.00;28.40
21085;DHT22;34247;50.064;19.970;2022-10-16T03:44:31;30.00;28.40
21085;DHT22;34247;50.064;19.970;2022-10-16T03:45:35;30.00;28.50
21085;DHT22;34247;50.064;19.970;2022-10-16T03:46:39;30.00;28.40
21085;DHT22;34247;50.064;19.970;2022-10-16T03:47:44;30.00;28.40
21085;DHT22;34247;50.064;19.970;2022-10-16T03:48:47;30.00;28.40
21085;DHT22;34247;50.064;19.970;2022-10-16T03:49:51;30.00;28.80
21085;DHT22;34247;50.064;19.970;2022-10-16T03:50:56;30.00;28.50
21085;DHT22;34247;50.064;19.970;2022-10-16T03:51:59;30.00;28.50
21085;DHT22;34247;50.064;19.970;2022-10-16T03:53:03;30.00;28.50
21085;DHT22;34247;50.064;19.970;2022-10-16T03:54:09;30.00;28.50
21085;DHT22;34247;50.064;19.970;2022-10-16T03:55:13;30.00;28.60
21085;DHT22;34247;50.064;19.970;2022-10-16T03:56:17;30.00;28.60
21085;DHT22;34247;50.064;19.970;2022-10-16T03:57:21;30.00;28.60
21085;DHT22;34247;50.064;19.970;2022-10-16T03:58:25;30.00;28.60
21085;DHT22;34247;50.064;19.970;2022-10-16T03:59:30;30.00;28.60
21085;DHT22;34247;50.064;19.970;2022-10-16T04:00:34;30.00;28.70
21085;DHT22;34247;50.064;19.970;2022-10-16T04:01:38;30.00;28.70
21085;DHT22;34247;50.064;19.970;2022-10-16T04:02:42;30.00;28.70
21085;DHT22;34247;50.064;19.970;2022-10-16T04:03:46;30.00;28.70
21085;DHT22;34247;50.064;19.970;2022-10-16T04:04:50;30.00;28.70
21085;DHT22;34247;50.064;19.970;2022-10-16T04:05:54;29.90;28.70
21085;DHT22;34247;50.064;19.970;2022-10-16T04:06:58;29.90;28.70
21085;DHT22;34247;50.064;19.970;2022-10-16T04:08:03;29.90;28.70
21085;DHT22;34247;50.064;19.970;2022-10-16T04:09:07;29.90;28.70
21085;DHT22;34247;50.064;19.970;2022-10-16T04:10:10;29.90;28.70
21085;DHT22;34247;50.064;19.970;2022-10-16T04:11:14;29.90;28.80
21085;DHT22;34247;50.064;19.970;2022-10-16T04:12:18;29.90;28.80
21085;DHT22;34247;50.064;19.970;2022-10-16T04:13:24;29.90;29.30
21085;DHT22;34247;50.064;19.970;2022-10-16T04:14:27;29.90;28.80
21085;DHT22;34247;50.064;19.970;2022-10-16T04:15:34;29.90;28.80
21085;DHT22;34247;50.064;19.970;2022-10-16T04:16:38;29.90;29.10
21085;DHT22;34247;50.064;19.970;2022-10-16T04:17:42;29.90;28.80
21085;DHT22;34247;50.064;19.970;2022-10-16T04:18:46;29.90;28.90
21085;DHT22;34247;50.064;19.970;2022-10-16T04:19:53;29.90;28.90
21085;DHT22;34247;50.064;19.970;2022-10-16T04:20:57;29.90;29.00
21085;DHT22;34247;50.064;19.970;2022-10-16T04:22:05;29.90;29.00
21085;DHT22;34247;50.064;19.970;2022-10-16T04:23:09;29.90;29.00
21085;DHT22;34247;50.064;19.970;2022-10-16T04:24:13;29.90;29.00
21085;DHT22;34247;50.064;19.970;2022-10-16T04:25:17;29.90;29.00
21085;DHT22;34247;50.064;19.970;2022-10-16T04:26:21;29.90;29.10
21085;DHT22;34247;50.064;19.970;2022-10-16T04:27:25;29.90;29.10
21085;DHT22;34247;50.064;19.970;2022-10-16T04:28:30;29.90;29.10
21085;DHT22;34247;50.064;19.970;2022-10-16T04:29:35;29.90;29.10
21085;DHT22;34247;50.064;19.970;2022-10-16T04:30:39;29.90;29.10
21085;DHT22;34247;50.064;19.970;2022-10-16T04:31:43;29.90;29.10
21085;DHT22;34247;50.064;19.970;2022-10-16T04:32:50;29.90;29.10
21085;DHT22;34247;50.064;19.970;2022-10-16T04:33:55;29.90;29.10
21085;DHT22;34247;50.064;19.970;2022-10-16T04:34:59;29.90;29.10
21085;DHT22;34247;50.064;19.970;2022-10-16T04:36:06;29.90;29.10
21085;DHT22;34247;50.064;19.970;2022-10-16T04:37:10;29.90;29.10
21085;DHT22;34247;50.064;19.970;2022-10-16T04:38:14;29.90;29.10
21085;DHT22;34247;50.064;19.970;2022-10-16T04:39:18;29.80;29.10
21085;DHT22;34247;50.064;19.970;2022-10-16T04:40:21;29.90;29.10
21085;DHT22;34247;50.064;19.970;2022-10-16T04:41:25;29.80;29.10
21085;DHT22;34247;50.064;19.970;2022-10-16T04:42:29;29.90;29.10
21085;DHT22;34247;50.064;19.970;2022-10-16T04:43:34;29.80;29.10
21085;DHT22;34247;50.064;19.970;2022-10-16T04:44:38;29.80;29.10
21085;DHT22;34247;50.064;19.970;2022-10-16T04:45:42;29.80;29.10
21085;DHT22;34247;50.064;19.970;2022-10-16T04:46:45;29.80;29.10
21085;DHT22;34247;50.064;19.970;2022-10-16T04:47:49;29.80;29.20
21085;DHT22;34247;50.064;19.970;2022-10-16T04:48:53;29.80;29.20
21085;DHT22;34247;50.064;19.970;2022-10-16T04:49:57;29.80;29.10
21085;DHT22;34247;50.064;19.970;2022-10-16T04:51:02;29.70;29.20
21085;DHT22;34247;50.064;19.970;2022-10-16T04:52:07;29.80;29.20
21085;DHT22;34247;50.064;19.970;2022-10-16T04:53:12;29.70;29.10
21085;DHT22;34247;50.064;19.970;2022-10-16T04:54:16;29.70;29.10
21085;DHT22;34247;50.064;19.970;2022-10-16T04:55:20;29.80;29.20
21085;DHT22;34247;50.064;19.970;2022-10-16T04:56:24;29.70;29.10
21085;DHT22;34247;50.064;19.970;2022-10-16T04:57:29;29.70;29.20
21085;DHT22;34247;50.064;19.970;2022-10-16T04:58:33;29.70;29.20
21085;DHT22;34247;50.064;19.970;2022-10-16T04:59:36;29.70;29.20
21085;DHT22;34247;50.064;19.970;2022-10-16T05:00:40;29.70;29.20
21085;DHT22;34247;50.064;19.970;2022-10-16T05:01:44;29.70;29.20
21085;DHT22;34247;50.064;19.970;2022-10-16T05:02:50;29.70;29.20
21085;DHT22;34247;50.064;19.970;2022-10-16T05:03:54;29.70;29.20
21085;DHT22;34247;50.064;19.970;2022-10-16T05:04:57;29.70;29.20
21085;DHT22;34247;50.064;19.970;2022-10-16T05:06:01;29.70;29.20
21085;DHT22;34247;50.064;19.970;2022-10-16T05:07:07;29.70;29.30
21085;DHT22;34247;50.064;19.970;2022-10-16T05:08:13;29.60;29.20
21085;DHT22;34247;50.064;19.970;2022-10-16T05:09:17;29.70;29.30
21085;DHT22;34247;50.064;19.970;2022-10-16T05:10:22;29.70;29.30
21085;DHT22;34247;50.064;19.970;2022-10-16T05:11:25;29.70;29.30
21085;DHT22;34247;50.064;19.970;2022-10-16T05:12:30;29.60;29.30
21085;DHT22;34247;50.064;19.970;2022-10-16T05:13:34;29.60;29.30
21085;DHT22;34247;50.064;19.970;2022-10-16T05:14:38;29.60;29.30
21085;DHT22;34247;50.064;19.970;2022-10-16T05:15:47;29.60;29.30
21085;DHT22;34247;50.064;19.970;2022-10-16T05:16:52;29.60;29.30
21085;DHT22;34247;50.064;19.970;2022-10-16T05:17:56;29.60;29.30
21085;DHT22;34247;50.064;19.970;2022-10-16T05:19:00;29.60;29.30
21085;DHT22;34247;50.064;19.970;2022-10-16T05:20:24;29.60;29.40
21085;DHT22;34247;50.064;19.970;2022-10-16T05:21:27;29.60;29.40
21085;DHT22;34247;50.064;19.970;2022-10-16T05:22:31;29.60;29.40
21085;DHT22;34247;50.064;19.970;2022-10-16T05:23:35;29.60;29.50
21085;DHT22;34247;50.064;19.970;2022-10-16T05:24:39;29.60;29.50
21085;DHT22;34247;50.064;19.970;2022-10-16T05:25:51;29.50;29.50
21085;DHT22;34247;50.064;19.970;2022-10-16T05:27:01;29.60;29.50
21085;DHT22;34247;50.064;19.970;2022-10-16T05:28:05;29.60;29.40
21085;DHT22;34247;50.064;19.970;2022-10-16T05:29:11;29.50;29.40
21085;DHT22;34247;50.064;19.970;2022-10-16T05:30:16;29.50;29.50
21085;DHT22;34247;50.064;19.970;2022-10-16T05:31:21;29.60;29.50
21085;DHT22;34247;50.064;19.970;2022-10-16T05:32:25;29.60;29.50
21085;DHT22;34247;50.064;19.970;2022-10-16T05:33:29;29.60;29.50
21085;DHT22;34247;50.064;19.970;2022-10-16T05:34:33;29.50;29.50
21085;DHT22;34247;50.064;19.970;2022-10-16T05:35:37;29.50;29.60
21085;DHT22;34247;50.064;19.970;2022-10-16T05:36:41;29.50;29.60
21085;DHT22;34247;50.064;19.970;2022-10-16T05:37:45;29.50;29.60
21085;DHT22;34247;50.064;19.970;2022-10-16T05:38:50;29.50;29.60
21085;DHT22;34247;50.064;19.970;2022-10-16T05:39:55;29.50;29.60
21085;DHT22;34247;50.064;19.970;2022-10-16T05:40:59;29.50;29.60
21085;DHT22;34247;50.064;19.970;2022-10-16T05:42:03;29.60;29.60
21085;DHT22;34247;50.064;19.970;2022-10-16T05:43:10;29.50;29.60
21085;DHT22;34247;50.064;19.970;2022-10-16T05:44:14;29.50;29.60
21085;DHT22;34247;50.064;19.970;2022-10-16T05:45:18;29.50;29.60
21085;DHT22;34247;50.064;19.970;2022-10-16T05:46:22;29.50;29.60
21085;DHT22;34247;50.064;19.970;2022-10-16T05:47:26;29.50;29.70
21085;DHT22;34247;50.064;19.970;2022-10-16T05:48:32;29.50;29.70
21085;DHT22;34247;50.064;19.970;2022-10-16T05:49:36;29.60;29.70
21085;DHT22;34247;50.064;19.970;2022-10-16T05:50:43;29.60;29.60
21085;DHT22;34247;50.064;19.970;2022-10-16T05:51:47;29.60;29.60
21085;DHT22;34247;50.064;19.970;2022-10-16T05:52:51;29.60;29.60
21085;DHT22;34247;50.064;19.970;2022-10-16T05:53:55;29.60;29.70
21085;DHT22;34247;50.064;19.970;2022-10-16T05:54:58;29.60;29.70
21085;DHT22;34247;50.064;19.970;2022-10-16T05:56:04;29.60;29.70
21085;DHT22;34247;50.064;19.970;2022-10-16T05:57:11;29.60;29.70
21085;DHT22;34247;50.064;19.970;2022-10-16T05:58:15;29.60;29.70
21085;DHT22;34247;50.064;19.970;2022-10-16T05:59:18;29.60;29.70
21085;DHT22;34247;50.064;19.970;2022-10-16T06:00:22;29.60;29.60
21085;DHT22;34247;50.064;19.970;2022-10-16T06:01:26;29.60;29.70
21085;DHT22;34247;50.064;19.970;2022-10-16T06:02:30;29.60;29.70
21085;DHT22;34247;50.064;19.970;2022-10-16T06:03:34;29.70;29.80
21085;DHT22;34247;50.064;19.970;2022-10-16T06:04:38;29.60;29.70
21085;DHT22;34247;50.064;19.970;2022-10-16T06:05:42;29.60;29.70
21085;DHT22;34247;50.064;19.970;2022-10-16T06:06:46;29.60;29.70
21085;DHT22;34247;50.064;19.970;2022-10-16T06:07:50;29.70;29.70
21085;DHT22;34247;50.064;19.970;2022-10-16T06:08:55;29.70;29.70
21085;DHT22;34247;50.064;19.970;2022-10-16T06:09:59;29.70;29.80
21085;DHT22;34247;50.064;19.970;2022-10-16T06:11:05;29.70;29.70
21085;DHT22;34247;50.064;19.970;2022-10-16T06:12:11;29.70;29.70
21085;DHT22;34247;50.064;19.970;2022-10-16T06:13:15;29.70;29.80
21085;DHT22;34247;50.064;19.970;2022-10-16T06:14:19;29.70;29.80
21085;DHT22;34247;50.064;19.970;2022-10-16T06:15:23;29.70;29.80
21085;DHT22;34247;50.064;19.970;2022-10-16T06:16:27;29.70;29.80
21085;DHT22;34247;50.064;19.970;2022-10-16T06:17:31;29.80;29.80
21085;DHT22;34247;50.064;19.970;2022-10-16T06:18:35;29.80;29.80
21085;DHT22;34247;50.064;19.970;2022-10-16T06:19:39;29.80;29.80
21085;DHT22;34247;50.064;19.970;2022-10-16T06:20:43;29.80;29.80
21085;DHT22;34247;50.064;19.970;2022-10-16T06:21:47;29.80;29.70
21085;DHT22;34247;50.064;19.970;2022-10-16T06:22:51;29.90;29.80
21085;DHT22;34247;50.064;19.970;2022-10-16T06:23:55;29.90;29.80
21085;DHT22;34247;50.064;19.970;2022-10-16T06:25:00;29.90;29.70
21085;DHT22;34247;50.064;19.970;2022-10-16T06:26:12;29.90;29.70
21085;DHT22;34247;50.064;19.970;2022-10-16T06:27:17;29.90;29.70
21085;DHT22;34247;50.064;19.970;2022-10-16T06:28:20;29.90;29.70
21085;DHT22;34247;50.064;19.970;2022-10-16T06:29:24;30.00;29.70
21085;DHT22;34247;50.064;19.970;2022-10-16T06:30:28;30.00;29.80
21085;DHT22;34247;50.064;19.970;2022-10-16T06:31:31;30.00;29.70
21085;DHT22;34247;50.064;19.970;2022-10-16T06:32:36;30.00;29.80
21085;DHT22;34247;50.064;19.970;2022-10-16T06:33:40;30.00;29.70
21085;DHT22;34247;50.064;19.970;2022-10-16T06:34:44;30.00;29.80
21085;DHT22;34247;50.064;19.970;2022-10-16T06:35:48;30.10;29.70
21085;DHT22;34247;50.064;19.970;2022-10-16T06:36:52;30.10;29.80
21085;DHT22;34247;50.064;19.970;2022-10-16T06:37:56;30.10;29.80
21085;DHT22;34247;50.064;19.970;2022-10-16T06:39:00;30.10;29.80
21085;DHT22;34247;50.064;19.970;2022-10-16T06:40:05;30.20;29.90
21085;DHT22;34247;50.064;19.970;2022-10-16T06:41:18;30.20;29.80
21085;DHT22;34247;50.064;19.970;2022-10-16T06:42:24;30.20;29.80
21085;DHT22;34247;50.064;19.970;2022-10-16T06:43:29;30.30;29.70
21085;DHT22;34247;50.064;19.970;2022-10-16T06:44:36;30.30;29.60
21085;DHT22;34247;50.064;19.970;2022-10-16T06:45:40;30.30;29.40
21085;DHT22;34247;50.064;19.970;2022-10-16T06:46:44;30.40;29.40
21085;DHT22;34247;50.064;19.970;2022-10-16T06:47:48;30.40;29.40
21085;DHT22;34247;50.064;19.970;2022-10-16T06:48:55;30.50;29.50
21085;DHT22;34247;50.064;19.970;2022-10-16T06:49:59;30.50;29.50
21085;DHT22;34247;50.064;19.970;2022-10-16T06:51:16;30.50;29.40
21085;DHT22;34247;50.064;19.970;2022-10-16T06:52:21;30.50;29.40
21085;DHT22;34247;50.064;19.970;2022-10-16T06:53:28;30.60;30.00
21085;DHT22;34247;50.064;19.970;2022-10-16T06:54:46;30.60;29.40
21085;DHT22;34247;50.064;19.970;2022-10-16T06:55:51;30.60;29.30
21085;DHT22;34247;50.064;19.970;2022-10-16T06:56:55;30.70;29.30
21085;DHT22;34247;50.064;19.970;2022-10-16T06:57:59;30.70;29.20
21085;DHT22;34247;50.064;19.970;2022-10-16T06:59:03;30.80;29.10
21085;DHT22;34247;50.064;19.970;2022-10-16T07:00:08;30.80;29.00
21085;DHT22;34247;50.064;19.970;2022-10-16T07:01:19;30.80;29.00
21085;DHT22;34247;50.064;19.970;2022-10-16T07:02:24;30.90;29.00
21085;DHT22;34247;50.064;19.970;2022-10-16T07:03:29;30.90;29.00
21085;DHT22;34247;50.064;19.970;2022-10-16T07:04:32;30.90;29.00
21085;DHT22;34247;50.064;19.970;2022-10-16T07:05:41;31.00;29.00
21085;DHT22;34247;50.064;19.970;2022-10-16T07:06:46;31.00;28.90
21085;DHT22;34247;50.064;19.970;2022-10-16T07:07:50;31.10;28.90
21085;DHT22;34247;50.064;19.970;2022-10-16T07:08:55;31.10;28.80
21085;DHT22;34247;50.064;19.970;2022-10-16T07:09:59;31.10;28.90
21085;DHT22;34247;50.064;19.970;2022-10-16T07:11:05;31.20;28.90
21085;DHT22;34247;50.064;19.970;2022-10-16T07:12:11;31.20;28.90
21085;DHT22;34247;50.064;19.970;2022-10-16T07:13:16;31.30;28.90